Check out our new BloomSky Weather System.

Active alerts


No alerts


Thunder radar  blitzortung!


Rain radar more information rain snow radar


Visit our other weather sites:

Template documentation
and downloads

And another site



Weather Underground History page Text

Daily Summary for April 7, 2017 Units:  Metric    English   Both
« Previous Day
Next Day »
Daily Weekly Monthly Yearly Custom
  High: Low: Average:
Temperature: 27.5 °C 9.8 °C 19.4 °C
Dew Point: 14.4 °C 8.2 °C 10.3 °C
Humidity: 94 % 30 % 60 %
Wind Speed: 12.9 km/h 0 km/h 2.3 km/h
Wind Gust: 17.7 km/h - -
Wind:- - South
Pressure: 1024.6 hPa 1018.8 hPa -
Precipitation: 0 mm    
Historical Graphs
 
 
Tabular Data for April 7, 2017
Time Temperature Dew Point Pressure Wind Wind Speed Wind Gust Humidity Rainfall Rate (Hourly)
00:02 13.8 °C 8.6 °C 1022.6 hPa Calm   8 km/h 71 % 0 mm
00:07 13.8 °C 8.6 °C 1022.6 hPa Calm   8 km/h 71 % 0 mm
00:12 13.8 °C 8.6 °C 1022.9 hPa Calm   8 km/h 71 % 0 mm
00:17 13.6 °C 8.4 °C 1022.9 hPa Calm     71 % 0 mm
00:22 13.6 °C 8.6 °C 1022.9 hPa Calm     72 % 0 mm
00:27 13.5 °C 8.6 °C 1022.9 hPa Calm     72 % 0 mm
00:32 13.4 °C 8.5 °C 1022.9 hPa Calm     72 % 0 mm
00:37 13.4 °C 8.5 °C 1022.9 hPa Calm     72 % 0 mm
00:42 13.6 °C 8.6 °C 1022.9 hPa Calm     72 % 0 mm
00:47 13.6 °C 8.6 °C 1022.9 hPa Calm     72 % 0 mm
00:52 13.5 °C 8.6 °C 1022.9 hPa Calm     72 % 0 mm
00:57 13.4 °C 8.7 °C 1022.9 hPa Calm     73 % 0 mm
01:02 13.3 °C 8.6 °C 1022.9 hPa Calm     73 % 0 mm
01:07 13.3 °C 8.6 °C 1022.9 hPa Calm     73 % 0 mm
01:12 13.2 °C 8.5 °C 1022.9 hPa Calm     73 % 0 mm
01:17 12.9 °C 8.2 °C 1022.9 hPa Calm     73 % 0 mm
01:22 12.9 °C 8.8 °C 1022.9 hPa Calm     76 % 0 mm
01:27 13.1 °C 9 °C 1022.9 hPa Calm     76 % 0 mm
01:32 13.1 °C 8.8 °C 1022.9 hPa Calm     75 % 0 mm
01:37 12.9 °C 8.8 °C 1022.9 hPa Calm     76 % 0 mm
01:42 12.8 °C 8.7 °C 1022.9 hPa Calm     76 % 0 mm
01:47 12.7 °C 9 °C 1022.6 hPa Calm     78 % 0 mm
01:52 12.7 °C 9 °C 1022.6 hPa Calm     78 % 0 mm
01:57 12.7 °C 9.2 °C 1022.6 hPa Calm     79 % 0 mm
02:02 12.6 °C 9.1 °C 1022.6 hPa Calm     79 % 0 mm
02:07 12.6 °C 9.2 °C 1022.6 hPa Calm     80 % 0 mm
02:12 12.5 °C 9.1 °C 1022.6 hPa Calm     80 % 0 mm
02:17 12.4 °C 9 °C 1022.6 hPa Calm     80 % 0 mm
02:22 12.4 °C 9 °C 1022.6 hPa Calm     80 % 0 mm
02:27 12.2 °C 8.7 °C 1022.6 hPa Calm     79 % 0 mm
02:32 12 °C 8.8 °C 1022.6 hPa Calm     81 % 0 mm
02:37 12 °C 9 °C 1022.6 hPa Calm     82 % 0 mm
02:42 11.8 °C 8.6 °C 1022.6 hPa Calm     81 % 0 mm
02:47 11.7 °C 8.7 °C 1022.9 hPa Calm     82 % 0 mm
02:52 11.6 °C 8.8 °C 1022.9 hPa Calm     83 % 0 mm
02:57 11.4 °C 8.8 °C 1022.9 hPa Calm     84 % 0 mm
03:02 11.4 °C 8.8 °C 1022.9 hPa Calm     84 % 0 mm
03:07 11.3 °C 8.9 °C 1022.9 hPa Calm     85 % 0 mm
03:12 11.3 °C 8.9 °C 1022.9 hPa Calm     85 % 0 mm
03:17 11.2 °C 8.9 °C 1022.9 hPa Calm     86 % 0 mm
03:22 11.3 °C 9 °C 1022.9 hPa Calm     86 % 0 mm
03:27 11.3 °C 9 °C 1022.9 hPa Calm     86 % 0 mm
03:32 11.2 °C 8.9 °C 1022.6 hPa Calm     86 % 0 mm
03:37 11.2 °C 8.9 °C 1022.9 hPa Calm     86 % 0 mm
03:42 11.2 °C 9.1 °C 1022.9 hPa Calm     87 % 0 mm
03:47 11.2 °C 9.1 °C 1022.6 hPa Calm     87 % 0 mm
03:52 11.1 °C 9 °C 1022.6 hPa Calm     87 % 0 mm
03:57 10.9 °C 8.8 °C 1022.6 hPa Calm     87 % 0 mm
04:02 10.9 °C 9 °C 1022.2 hPa Calm     88 % 0 mm
04:07 10.9 °C 8.8 °C 1022.2 hPa Calm     87 % 0 mm
04:12 10.8 °C 8.7 °C 1022.2 hPa Calm     87 % 0 mm
04:17 10.8 °C 8.9 °C 1022.2 hPa Calm     88 % 0 mm
04:22 10.7 °C 9 °C 1022.2 hPa Calm     89 % 0 mm
04:27 10.8 °C 9.1 °C 1022.2 hPa Calm     89 % 0 mm
04:32 10.7 °C 9 °C 1022.2 hPa Calm     89 % 0 mm
04:37 10.8 °C 9.1 °C 1022.2 hPa Calm     89 % 0 mm
04:42 10.7 °C 9 °C 1022.2 hPa Calm     89 % 0 mm
04:47 10.7 °C 9 °C 1022.2 hPa Calm     89 % 0 mm
04:52 10.7 °C 9 °C 1022.2 hPa Calm     89 % 0 mm
04:57 10.6 °C 9 °C 1021.9 hPa Calm     90 % 0 mm
05:02 10.7 °C 9.1 °C 1021.9 hPa Calm     90 % 0 mm
05:07 10.7 °C 9.1 °C 1021.9 hPa Calm     90 % 0 mm
05:12 10.6 °C 9 °C 1021.9 hPa Calm     90 % 0 mm
05:17 10.6 °C 9.2 °C 1021.9 hPa Calm     91 % 0 mm
05:22 10.5 °C 9.1 °C 1022.2 hPa Calm     91 % 0 mm
05:27 10.3 °C 8.9 °C 1022.2 hPa Calm     91 % 0 mm
05:32 10.3 °C 9.1 °C 1022.2 hPa Calm     92 % 0 mm
05:37 10.3 °C 9.1 °C 1022.2 hPa Calm     92 % 0 mm
05:42 10.3 °C 9.1 °C 1022.2 hPa Calm     92 % 0 mm
05:47 10.2 °C 9 °C 1022.2 hPa Calm     92 % 0 mm
05:52 10.2 °C 9 °C 1022.2 hPa Calm     92 % 0 mm
05:57 10.2 °C 9 °C 1022.2 hPa Calm     92 % 0 mm
06:02 10.2 °C 9 °C 1022.2 hPa Calm     92 % 0 mm
06:07 10.3 °C 9.2 °C 1022.2 hPa Calm     93 % 0 mm
06:12 10.3 °C 9.1 °C 1022.6 hPa Calm   1.6 km/h 92 % 0 mm
06:17 10.3 °C 9.1 °C 1022.2 hPa Calm   1.6 km/h 92 % 0 mm
06:22 10.3 °C 9.1 °C 1022.2 hPa Calm   1.6 km/h 92 % 0 mm
06:27 10.2 °C 9 °C 1022.2 hPa Calm   1.6 km/h 92 % 0 mm
06:32 10.1 °C 8.9 °C 1022.6 hPa Calm   1.6 km/h 92 % 0 mm
06:37 10.2 °C 9.1 °C 1022.6 hPa Calm   1.6 km/h 93 % 0 mm
06:42 10.3 °C 9.2 °C 1022.6 hPa Calm   1.6 km/h 93 % 0 mm
06:47 10.2 °C 9 °C 1022.6 hPa Calm   1.6 km/h 92 % 0 mm
06:52 10.1 °C 8.9 °C 1022.6 hPa Calm   1.6 km/h 92 % 0 mm
06:57 10 °C 8.8 °C 1022.6 hPa Calm     92 % 0 mm
07:02 9.8 °C 8.6 °C 1022.9 hPa Calm     92 % 0 mm
07:07 9.8 °C 8.7 °C 1022.9 hPa Calm     93 % 0 mm
07:12 10 °C 8.9 °C 1022.9 hPa Calm     93 % 0 mm
07:17 10.1 °C 9 °C 1022.9 hPa Calm     93 % 0 mm
07:22 10.1 °C 9 °C 1023.2 hPa Calm     93 % 0 mm
07:27 10.1 °C 9 °C 1022.9 hPa Calm     93 % 0 mm
07:32 9.9 °C 8.8 °C 1023.2 hPa Calm     93 % 0 mm
07:37 9.9 °C 8.8 °C 1023.2 hPa Calm     93 % 0 mm
07:42 10.2 °C 9.3 °C 1023.2 hPa Calm   1.6 km/h 94 % 0 mm
07:47 10.5 °C 9.6 °C 1023.2 hPa Calm   1.6 km/h 94 % 0 mm
07:52 11.1 °C 10.2 °C 1023.2 hPa Calm   1.6 km/h 94 % 0 mm
07:57 11.8 °C 10.9 °C 1023.2 hPa Calm   1.6 km/h 94 % 0 mm
08:02 12.4 °C 11.5 °C 1023.2 hPa Calm     94 % 0 mm
08:07 12.7 °C 11.6 °C 1023.6 hPa Calm   1.6 km/h 93 % 0 mm
08:12 13.3 °C 12 °C 1023.6 hPa Calm   1.6 km/h 92 % 0 mm
08:17 13.7 °C 11.9 °C 1023.6 hPa Calm   1.6 km/h 89 % 0 mm
08:22 14.3 °C 12.5 °C 1023.9 hPa Calm   1.6 km/h 89 % 0 mm
08:27 15.2 °C 13.2 °C 1023.9 hPa Calm   1.6 km/h 88 % 0 mm
08:32 16.1 °C 13.6 °C 1023.9 hPa Calm   1.6 km/h 85 % 0 mm
08:37 16.9 °C 13.6 °C 1023.9 hPa Calm   1.6 km/h 81 % 0 mm
08:42 17.4 °C 12.9 °C 1023.9 hPa Calm   1.6 km/h 75 % 0 mm
08:47 17.7 °C 13 °C 1023.9 hPa Calm   1.6 km/h 74 % 0 mm
08:52 18.2 °C 13.1 °C 1023.9 hPa Calm   1.6 km/h 72 % 0 mm
08:57 18.7 °C 12.7 °C 1023.9 hPa Calm   1.6 km/h 68 % 0 mm
09:02 19 °C 13 °C 1023.9 hPa ENE 1.6 km/h 1.6 km/h 68 % 0 mm
09:07 19.1 °C 12.4 °C 1023.9 hPa North 1.6 km/h 1.6 km/h 65 % 0 mm
09:12 19.2 °C 12.9 °C 1024.3 hPa North 1.6 km/h 1.6 km/h 67 % 0 mm
09:17 19.2 °C 12 °C 1024.3 hPa Calm   1.6 km/h 63 % 0 mm
09:22 19.2 °C 12 °C 1024.3 hPa North 3.2 km/h 4.8 km/h 63 % 0 mm
09:27 19.4 °C 12.4 °C 1024.3 hPa NNW 1.6 km/h 4.8 km/h 64 % 0 mm
09:32 19.7 °C 12.7 °C 1024.3 hPa ENE 3.2 km/h 4.8 km/h 64 % 0 mm
09:37 19.7 °C 12.2 °C 1024.3 hPa Calm   4.8 km/h 62 % 0 mm
09:43 20.3 °C 12.8 °C 1024.3 hPa Calm   4.8 km/h 62 % 0 mm
09:48 20.5 °C 12.2 °C 1024.3 hPa NW 3.2 km/h 4.8 km/h 59 % 0 mm
09:53 20.2 °C 12.2 °C 1024.3 hPa NW 1.6 km/h 6.4 km/h 60 % 0 mm
09:58 20 °C 12.5 °C 1024.3 hPa NW 1.6 km/h 8 km/h 62 % 0 mm
10:03 20.6 °C 13.1 °C 1024.3 hPa NW 1.6 km/h 8 km/h 62 % 0 mm
10:08 21.2 °C 13.1 °C 1024.3 hPa Calm   8 km/h 60 % 0 mm
10:13 21.5 °C 12.9 °C 1024.3 hPa Calm   4.8 km/h 58 % 0 mm
10:14 21.5 °C 13.1 °C 1024.6 hPa WNW 1.6 km/h 4.8 km/h 59 % 0 mm
10:19 21.7 °C 13.6 °C 1024.6 hPa South 3.2 km/h 4.8 km/h 60 % 0 mm
10:24 22.1 °C 13.4 °C 1024.6 hPa West 1.6 km/h 6.4 km/h 58 % 0 mm
10:29 22.5 °C 14.3 °C 1024.6 hPa West 1.6 km/h 6.4 km/h 60 % 0 mm
10:31 22.6 °C 14.2 °C 1024.6 hPa WNW 1.6 km/h 6.4 km/h 59 % 0 mm
10:36 23.1 °C 14.1 °C 1024.6 hPa South 3.2 km/h 6.4 km/h 57 % 0 mm
10:41 23.4 °C 14.4 °C 1024.6 hPa SSW 1.6 km/h 4.8 km/h 57 % 0 mm
10:46 23.4 °C 13.8 °C 1024.3 hPa SSE 3.2 km/h 8 km/h 55 % 0 mm
10:51 23.3 °C 13.5 °C 1024.3 hPa Calm   8 km/h 54 % 0 mm
10:56 23.6 °C 14 °C 1024.3 hPa SW 4.8 km/h 8 km/h 55 % 0 mm
11:01 23.6 °C 14.3 °C 1024.3 hPa WSW 3.2 km/h 6.4 km/h 56 % 0 mm
11:06 23.3 °C 14 °C 1024.3 hPa SSW 1.6 km/h 9.7 km/h 56 % 0 mm
11:11 23.4 °C 12.7 °C 1024.3 hPa SSE 1.6 km/h 9.7 km/h 51 % 0 mm
11:16 23.7 °C 13 °C 1024.3 hPa SE 1.6 km/h 9.7 km/h 51 % 0 mm
11:21 23.7 °C 13 °C 1024.3 hPa SW 3.2 km/h 9.7 km/h 51 % 0 mm
11:26 23.9 °C 12.8 °C 1024.3 hPa Calm   9.7 km/h 50 % 0 mm
11:31 24.1 °C 11.8 °C 1023.9 hPa South 9.7 km/h 9.7 km/h 46 % 0 mm
11:36 23.8 °C 12.4 °C 1023.9 hPa ESE 8 km/h 9.7 km/h 49 % 0 mm
11:41 23.7 °C 11.7 °C 1023.9 hPa Calm   9.7 km/h 47 % 0 mm
11:46 23.9 °C 11.9 °C 1023.9 hPa ESE 6.4 km/h 12.9 km/h 47 % 0 mm
11:51 23.8 °C 11.8 °C 1023.9 hPa SE 6.4 km/h 12.9 km/h 47 % 0 mm
11:56 23.7 °C 11.4 °C 1023.9 hPa South 3.2 km/h 12.9 km/h 46 % 0 mm
12:01 24.1 °C 12.1 °C 1023.9 hPa SSW 1.6 km/h 11.3 km/h 47 % 0 mm
12:06 24.3 °C 12.3 °C 1023.9 hPa WNW 3.2 km/h 11.3 km/h 47 % 0 mm
12:11 24.4 °C 11.4 °C 1023.6 hPa East 1.6 km/h 14.5 km/h 44 % 0 mm
12:16 24.6 °C 11.5 °C 1023.6 hPa SSE 6.4 km/h 14.5 km/h 44 % 0 mm
12:21 24.6 °C 11.2 °C 1023.6 hPa SE 4.8 km/h 14.5 km/h 43 % 0 mm
12:26 24.7 °C 10.9 °C 1023.6 hPa North 3.2 km/h 11.3 km/h 42 % 0 mm
12:27 24.7 °C 11.3 °C 1023.2 hPa Calm   11.3 km/h 43 % 0 mm
12:32 24.9 °C 10.4 °C 1023.2 hPa ESE 4.8 km/h 11.3 km/h 40 % 0 mm
12:37 24.6 °C 11.2 °C 1023.2 hPa East 6.4 km/h 11.3 km/h 43 % 0 mm
12:42 24.7 °C 11.6 °C 1023.2 hPa SSW 4.8 km/h 11.3 km/h 44 % 0 mm
12:47 24.9 °C 10 °C 1023.2 hPa Calm   11.3 km/h 39 % 0 mm
12:49 25 °C 10.5 °C 1023.2 hPa East 3.2 km/h 11.3 km/h 40 % 0 mm
12:54 25.2 °C 11.4 °C 1023.2 hPa Calm   11.3 km/h 42 % 0 mm
12:59 25.2 °C 12.1 °C 1022.9 hPa WSW 1.6 km/h 9.7 km/h 44 % 0 mm
13:04 25.8 °C 14 °C 1022.9 hPa Calm   9.7 km/h 48 % 0 mm
13:09 26.1 °C 12.2 °C 1022.9 hPa Calm   9.7 km/h 42 % 0 mm
13:14 26.2 °C 11.5 °C 1022.6 hPa SE 3.2 km/h 6.4 km/h 40 % 0 mm
13:19 26.1 °C 11.4 °C 1022.6 hPa SSE 8 km/h 8 km/h 40 % 0 mm
13:24 25.9 °C 11.6 °C 1022.6 hPa South 3.2 km/h 8 km/h 41 % 0 mm
13:29 26.1 °C 12.2 °C 1022.2 hPa South 8 km/h 8 km/h 42 % 0 mm
13:34 26.2 °C 11.5 °C 1022.2 hPa SE 6.4 km/h 11.3 km/h 40 % 0 mm
13:39 26.1 °C 10.3 °C 1022.2 hPa SE 8 km/h 11.3 km/h 37 % 0 mm
13:44 25.9 °C 10.1 °C 1022.2 hPa ESE 3.2 km/h 11.3 km/h 37 % 0 mm
13:49 25.9 °C 10.5 °C 1022.2 hPa West 4.8 km/h 9.7 km/h 38 % 0 mm
13:54 26.1 °C 10.7 °C 1022.2 hPa SSW 3.2 km/h 9.7 km/h 38 % 0 mm
13:59 25.9 °C 10.5 °C 1022.2 hPa West 1.6 km/h 12.9 km/h 38 % 0 mm
14:00 26 °C 10.6 °C 1022.2 hPa NNE 1.6 km/h 12.9 km/h 38 % 0 mm
14:05 26.2 °C 10.8 °C 1021.9 hPa Calm   12.9 km/h 38 % 0 mm
14:10 26.5 °C 11.8 °C 1021.9 hPa SSW 1.6 km/h 12.9 km/h 40 % 0 mm
14:15 26.5 °C 11 °C 1021.9 hPa ESE 1.6 km/h 12.9 km/h 38 % 0 mm
14:16 26.5 °C 9.8 °C 1021.9 hPa SSW 11.3 km/h 12.9 km/h 35 % 0 mm
14:21 26.3 °C 10.4 °C 1021.9 hPa SSE 3.2 km/h 12.9 km/h 37 % 0 mm
14:26 26.6 °C 10.3 °C 1021.9 hPa ESE 4.8 km/h 11.3 km/h 36 % 0 mm
14:31 26.6 °C 10.3 °C 1021.6 hPa SSE 8 km/h 12.9 km/h 36 % 0 mm
14:36 26.2 °C 10.4 °C 1021.6 hPa East 6.4 km/h 14.5 km/h 37 % 0 mm
14:41 26.4 °C 9.7 °C 1021.6 hPa SE 9.7 km/h 14.5 km/h 35 % 0 mm
14:46 26.3 °C 9.6 °C 1021.6 hPa South 4.8 km/h 14.5 km/h 35 % 0 mm
14:51 26.3 °C 9.2 °C 1021.6 hPa East 4.8 km/h 12.9 km/h 34 % 0 mm
14:56 26.6 °C 9 °C 1021.6 hPa ESE 9.7 km/h 16.1 km/h 33 % 0 mm
15:01 26.4 °C 9.3 °C 1021.2 hPa ESE 3.2 km/h 16.1 km/h 34 % 0 mm
15:06 26.5 °C 9.4 °C 1021.2 hPa Calm   16.1 km/h 34 % 0 mm
15:11 26.6 °C 9.4 °C 1021.2 hPa ESE 4.8 km/h 11.3 km/h 34 % 0 mm
15:16 26.8 °C 10.1 °C 1020.9 hPa ENE 8 km/h 9.7 km/h 35 % 0 mm
15:21 27 °C 11.1 °C 1020.9 hPa SSW 6.4 km/h 8 km/h 37 % 0 mm
15:26 26.9 °C 9.3 °C 1020.9 hPa SW 4.8 km/h 12.9 km/h 33 % 0 mm
15:31 26.8 °C 9.6 °C 1020.9 hPa SSW 8 km/h 12.9 km/h 34 % 0 mm
15:36 27.1 °C 11.2 °C 1020.5 hPa SW 6.4 km/h 12.9 km/h 37 % 0 mm
15:41 27.3 °C 9.6 °C 1020.5 hPa South 4.8 km/h 11.3 km/h 33 % 0 mm
15:46 27.3 °C 9.6 °C 1020.5 hPa WSW 3.2 km/h 9.7 km/h 33 % 0 mm
15:51 27.3 °C 10.1 °C 1020.5 hPa SSW 8 km/h 14.5 km/h 34 % 0 mm
15:56 27.2 °C 9.1 °C 1020.2 hPa East 3.2 km/h 14.5 km/h 32 % 0 mm
16:01 27.2 °C 9.5 °C 1020.2 hPa SSE 6.4 km/h 14.5 km/h 33 % 0 mm
16:06 27.1 °C 9.4 °C 1020.2 hPa SW 12.9 km/h 16.1 km/h 33 % 0 mm
16:11 27 °C 8.9 °C 1020.2 hPa SSE 8 km/h 16.1 km/h 32 % 0 mm
16:16 26.9 °C 9.7 °C 1019.9 hPa Calm   16.1 km/h 34 % 0 mm
16:21 27 °C 10.2 °C 1019.9 hPa Calm   14.5 km/h 35 % 0 mm
16:26 27.3 °C 9.6 °C 1019.9 hPa SSE 8 km/h 11.3 km/h 33 % 0 mm
16:31 27.1 °C 9 °C 1019.5 hPa ESE 1.6 km/h 11.3 km/h 32 % 0 mm
16:36 27.1 °C 8.5 °C 1019.5 hPa Calm   11.3 km/h 31 % 0 mm
16:41 27.4 °C 10.1 °C 1019.5 hPa NNE 3.2 km/h 11.3 km/h 34 % 0 mm
16:46 27.5 °C 9.3 °C 1019.2 hPa SE 6.4 km/h 12.9 km/h 32 % 0 mm
16:51 27.3 °C 9.2 °C 1019.2 hPa Calm   12.9 km/h 32 % 0 mm
16:56 27.1 °C 9.4 °C 1019.2 hPa SE 6.4 km/h 17.7 km/h 33 % 0 mm
17:01 27 °C 8.9 °C 1019.2 hPa South 4.8 km/h 17.7 km/h 32 % 0 mm
17:06 27.1 °C 8.5 °C 1019.2 hPa Calm   17.7 km/h 31 % 0 mm
17:11 27.3 °C 8.7 °C 1019.2 hPa SE 9.7 km/h 12.9 km/h 31 % 0 mm
17:16 27.1 °C 8.5 °C 1019.2 hPa SE 4.8 km/h 14.5 km/h 31 % 0 mm
17:21 27.1 °C 9.4 °C 1018.8 hPa Calm   14.5 km/h 33 % 0 mm
17:26 27.3 °C 9.6 °C 1018.8 hPa Calm   14.5 km/h 33 % 0 mm
17:31 27.4 °C 8.3 °C 1018.8 hPa Calm   9.7 km/h 30 % 0 mm
17:36 27.4 °C 9.2 °C 1018.8 hPa Calm   6.4 km/h 32 % 0 mm
17:41 27.5 °C 8.9 °C 1018.8 hPa SSE 1.6 km/h 11.3 km/h 31 % 0 mm
17:46 27.5 °C 9.8 °C 1018.8 hPa SSE 3.2 km/h 11.3 km/h 33 % 0 mm
17:51 27.5 °C 9.3 °C 1018.8 hPa SW 8 km/h 11.3 km/h 32 % 0 mm
17:56 26.9 °C 10.1 °C 1018.8 hPa SSW 4.8 km/h 11.3 km/h 35 % 0 mm
18:01 26.6 °C 9.4 °C 1018.8 hPa SW 4.8 km/h 9.7 km/h 34 % 0 mm
18:06 26.5 °C 9.4 °C 1018.8 hPa WSW 3.2 km/h 9.7 km/h 34 % 0 mm
18:11 26.7 °C 9.5 °C 1018.8 hPa SSW 3.2 km/h 9.7 km/h 34 % 0 mm
18:16 26.6 °C 9.9 °C 1018.8 hPa SSE 3.2 km/h 9.7 km/h 35 % 0 mm
18:21 26.6 °C 9.4 °C 1018.8 hPa South 4.8 km/h 4.8 km/h 34 % 0 mm
18:27 26.4 °C 8.8 °C 1018.8 hPa SSW 1.6 km/h 11.3 km/h 33 % 0 mm
18:32 26.2 °C 9.5 °C 1018.8 hPa South 3.2 km/h 11.3 km/h 35 % 0 mm
18:37 26 °C 8.9 °C 1018.8 hPa SW 3.2 km/h 11.3 km/h 34 % 0 mm
18:42 25.9 °C 9.3 °C 1018.8 hPa SSW 3.2 km/h 11.3 km/h 35 % 0 mm
18:47 25.9 °C 9.3 °C 1018.8 hPa South 3.2 km/h 11.3 km/h 35 % 0 mm
18:52 25.9 °C 8.8 °C 1018.8 hPa SSW 3.2 km/h 9.7 km/h 34 % 0 mm
18:57 25.9 °C 8.8 °C 1018.8 hPa South 1.6 km/h 8 km/h 34 % 0 mm
19:02 25.9 °C 8.8 °C 1018.8 hPa SSW 3.2 km/h 6.4 km/h 34 % 0 mm
19:07 25.9 °C 9.3 °C 1018.8 hPa SSW 3.2 km/h 6.4 km/h 35 % 0 mm
19:12 25.7 °C 9.1 °C 1018.8 hPa SSW 3.2 km/h 4.8 km/h 35 % 0 mm
19:17 25.4 °C 10 °C 1018.8 hPa SSE 1.6 km/h 4.8 km/h 38 % 0 mm
19:22 25.1 °C 11.3 °C 1018.8 hPa SE 1.6 km/h 6.4 km/h 42 % 0 mm
19:27 24.9 °C 11.8 °C 1018.8 hPa SSE 4.8 km/h 11.3 km/h 44 % 0 mm
19:32 24.6 °C 12.2 °C 1018.8 hPa SE 3.2 km/h 11.3 km/h 46 % 0 mm
19:37 24.3 °C 12.3 °C 1018.8 hPa ESE 4.8 km/h 11.3 km/h 47 % 0 mm
19:42 24 °C 12.6 °C 1018.8 hPa East 1.6 km/h 8 km/h 49 % 0 mm
19:47 23.8 °C 12.4 °C 1018.8 hPa ESE 1.6 km/h 8 km/h 49 % 0 mm
19:52 23.6 °C 12.6 °C 1018.8 hPa Calm   8 km/h 50 % 0 mm
19:57 23.3 °C 12.6 °C 1018.8 hPa ESE 6.4 km/h 8 km/h 51 % 0 mm
20:02 23.2 °C 12.8 °C 1018.8 hPa ESE 3.2 km/h 9.7 km/h 52 % 0 mm
20:07 23 °C 12.6 °C 1018.8 hPa SE 3.2 km/h 9.7 km/h 52 % 0 mm
20:12 22.9 °C 12.8 °C 1018.8 hPa SSE 3.2 km/h 9.7 km/h 53 % 0 mm
20:17 22.8 °C 12.7 °C 1018.8 hPa ESE 4.8 km/h 9.7 km/h 53 % 0 mm
20:22 22.7 °C 12.9 °C 1018.8 hPa SE 4.8 km/h 9.7 km/h 54 % 0 mm
20:27 22.5 °C 11.9 °C 1018.8 hPa SE 4.8 km/h 9.7 km/h 51 % 0 mm
20:32 22.4 °C 11.5 °C 1019.2 hPa South 4.8 km/h 9.7 km/h 50 % 0 mm
20:37 22.3 °C 11.4 °C 1019.2 hPa SSW 4.8 km/h 9.7 km/h 50 % 0 mm
20:42 22.2 °C 11 °C 1019.2 hPa SSW 4.8 km/h 9.7 km/h 49 % 0 mm
20:47 22.2 °C 11.3 °C 1019.2 hPa SSE 3.2 km/h 9.7 km/h 50 % 0 mm
20:52 22 °C 11.1 °C 1019.2 hPa South 3.2 km/h 9.7 km/h 50 % 0 mm
20:57 21.8 °C 10.9 °C 1019.2 hPa SSW 9.7 km/h 9.7 km/h 50 % 0 mm
21:02 21.7 °C 10.2 °C 1019.5 hPa SSW 4.8 km/h 12.9 km/h 48 % 0 mm
21:07 21.7 °C 10.5 °C 1019.5 hPa South 1.6 km/h 12.9 km/h 49 % 0 mm
21:12 21.6 °C 10.4 °C 1019.5 hPa SSW 3.2 km/h 12.9 km/h 49 % 0 mm
21:17 21.4 °C 10.2 °C 1019.5 hPa SW 6.4 km/h 9.7 km/h 49 % 0 mm
21:22 21.5 °C 10 °C 1019.5 hPa SSW 11.3 km/h 11.3 km/h 48 % 0 mm
21:28 21.4 °C 9.9 °C 1019.5 hPa South 8 km/h 14.5 km/h 48 % 0 mm
21:33 21.3 °C 9.8 °C 1019.9 hPa SSW 4.8 km/h 14.5 km/h 48 % 0 mm
21:38 21.2 °C 9.8 °C 1019.9 hPa South 4.8 km/h 14.5 km/h 48 % 0 mm
21:43 21.2 °C 9.8 °C 1019.9 hPa ESE 3.2 km/h 12.9 km/h 48 % 0 mm
21:48 21.1 °C 10 °C 1019.9 hPa SSE 1.6 km/h 12.9 km/h 49 % 0 mm
21:53 20.9 °C 9.8 °C 1019.9 hPa SSW 3.2 km/h 12.9 km/h 49 % 0 mm
21:54 20.9 °C 9.8 °C 1019.9 hPa SSE 1.6 km/h 12.9 km/h 49 % 0 mm
21:59 20.9 °C 9.8 °C 1020.2 hPa South 4.8 km/h 11.3 km/h 49 % 0 mm
22:04 20.8 °C 9.7 °C 1020.2 hPa SSE 3.2 km/h 9.7 km/h 49 % 0 mm
22:09 20.7 °C 9.9 °C 1020.2 hPa South 3.2 km/h 8 km/h 50 % 0 mm
22:14 20.5 °C 9.7 °C 1020.2 hPa SW 6.4 km/h 8 km/h 50 % 0 mm
22:19 20.4 °C 9.9 °C 1020.2 hPa SSW 3.2 km/h 9.7 km/h 51 % 0 mm
22:24 20.3 °C 9.8 °C 1020.2 hPa Calm   9.7 km/h 51 % 0 mm
22:29 20.2 °C 10 °C 1020.2 hPa South 4.8 km/h 9.7 km/h 52 % 0 mm
22:34 20.1 °C 9.9 °C 1020.2 hPa SSW 3.2 km/h 9.7 km/h 52 % 0 mm
22:39 20 °C 9.8 °C 1020.2 hPa South 4.8 km/h 9.7 km/h 52 % 0 mm
22:44 19.9 °C 10 °C 1019.9 hPa South 3.2 km/h 9.7 km/h 53 % 0 mm
22:49 19.8 °C 10.2 °C 1019.9 hPa SSW 3.2 km/h 9.7 km/h 54 % 0 mm
22:54 19.7 °C 10.1 °C 1019.9 hPa South 4.8 km/h 9.7 km/h 54 % 0 mm
22:59 19.7 °C 10.4 °C 1019.9 hPa SW 6.4 km/h 9.7 km/h 55 % 0 mm
23:04 19.6 °C 10.6 °C 1019.9 hPa South 4.8 km/h 9.7 km/h 56 % 0 mm
23:09 19.6 °C 10.6 °C 1019.9 hPa SE 4.8 km/h 9.7 km/h 56 % 0 mm
23:14 19.4 °C 10.7 °C 1019.9 hPa South 4.8 km/h 9.7 km/h 57 % 0 mm
23:19 19.4 °C 10.9 °C 1019.9 hPa SSE 3.2 km/h 9.7 km/h 58 % 0 mm
23:24 19.3 °C 10.8 °C 1019.9 hPa SE 1.6 km/h 9.7 km/h 58 % 0 mm
23:29 19.2 °C 11 °C 1019.9 hPa SSE 3.2 km/h 9.7 km/h 59 % 0 mm
23:34 19.2 °C 11 °C 1019.9 hPa SSW 3.2 km/h 9.7 km/h 59 % 0 mm
23:39 19 °C 11.1 °C 1019.9 hPa SSW 1.6 km/h 9.7 km/h 60 % 0 mm
23:44 18.9 °C 11.2 °C 1019.9 hPa SSW 1.6 km/h 8 km/h 61 % 0 mm
23:49 18.8 °C 11.1 °C 1019.5 hPa South 3.2 km/h 8 km/h 61 % 0 mm
23:54 18.7 °C 11.3 °C 1019.5 hPa South 3.2 km/h 6.4 km/h 62 % 0 mm
23:59 18.6 °C 11.2 °C 1019.5 hPa SSE 1.6 km/h 6.4 km/h 62 % 0 mm
Spring, Texas: Villages of Bridgestone
Compliments of Weather Underground - 3.25 mb

Script developed by  Jim McMurry - jmcmurry@mwt.net Adapted for the template by  Wim van der Kuil - Leuven-Template.eu

You find our weather info also at:

UK Metoffice

WeatherCloud

Weather Underground

Mid-South Weather Network

AWEKAS

Citizen Weather Observer Program (CWOP)

HAMweather, WeatherForYou, PWS Weather

Equipment we use:

Weather-station
Davis Vantage Vue

Weather-program
Meteohub

Weather-server
Debian 7.9 x86 (Guest)

Provider
DreamHost

Davis Vantage Vue

Meteohub

Debian 7.9 x86 (Guest)

DreamHost